sensor_id;sensor_type;location;lat;lon;timestamp;pressure;altitude;pressure_sealevel;temperature;humidity
46942;BME280;32676;52.630;4.896;2023-07-30T00:01:15;99643.69;;;17.75;83.97
46942;BME280;32676;52.630;4.896;2023-07-30T00:03:41;99650.59;;;17.77;83.95
46942;BME280;32676;52.630;4.896;2023-07-30T00:06:08;99662.03;;;17.78;83.95
46942;BME280;32676;52.630;4.896;2023-07-30T00:08:34;99663.88;;;17.77;84.13
46942;BME280;32676;52.630;4.896;2023-07-30T00:11:02;99667.34;;;17.78;83.87
46942;BME280;32676;52.630;4.896;2023-07-30T00:13:28;99684.72;;;17.82;84.05
46942;BME280;32676;52.630;4.896;2023-07-30T00:15:54;99694.28;;;17.84;83.85
46942;BME280;32676;52.630;4.896;2023-07-30T00:18:21;99710.84;;;17.88;84.02
46942;BME280;32676;52.630;4.896;2023-07-30T00:20:47;99727.66;;;17.89;83.95
46942;BME280;32676;52.630;4.896;2023-07-30T00:23:13;99731.84;;;17.91;83.69
46942;BME280;32676;52.630;4.896;2023-07-30T00:25:40;99752.88;;;17.94;83.54
46942;BME280;32676;52.630;4.896;2023-07-30T00:28:07;99778.97;;;18.00;83.39
46942;BME280;32676;52.630;4.896;2023-07-30T00:30:34;99789.47;;;18.02;82.97
46942;BME280;32676;52.630;4.896;2023-07-30T00:33:00;99792.84;;;18.04;82.63
46942;BME280;32676;52.630;4.896;2023-07-30T00:35:27;99814.84;;;18.06;82.43
46942;BME280;32676;52.630;4.896;2023-07-30T00:37:53;99825.22;;;18.09;82.03
46942;BME280;32676;52.630;4.896;2023-07-30T00:40:20;99836.72;;;18.10;82.00
46942;BME280;32676;52.630;4.896;2023-07-30T00:42:46;99840.94;;;18.12;81.88
46942;BME280;32676;52.630;4.896;2023-07-30T00:45:14;99855.81;;;18.15;82.04
46942;BME280;32676;52.630;4.896;2023-07-30T00:47:40;99859.44;;;18.14;81.95
46942;BME280;32676;52.630;4.896;2023-07-30T00:50:07;99859.44;;;18.14;81.95
46942;BME280;32676;52.630;4.896;2023-07-30T00:52:34;99859.44;;;18.14;82.09
46942;BME280;32676;52.630;4.896;2023-07-30T00:55:01;99865.59;;;18.14;81.90
46942;BME280;32676;52.630;4.896;2023-07-30T00:57:28;99869.81;;;18.17;81.94
46942;BME280;32676;52.630;4.896;2023-07-30T00:59:54;99864.75;;;18.14;81.82
46942;BME280;32676;52.630;4.896;2023-07-30T01:02:23;99851.72;;;18.11;81.63
46942;BME280;32676;52.630;4.896;2023-07-30T01:04:49;99851.81;;;18.09;81.49
46942;BME280;32676;52.630;4.896;2023-07-30T01:07:16;99831.66;;;18.07;81.63
46942;BME280;32676;52.630;4.896;2023-07-30T01:09:43;99830.94;;;18.05;81.49
46942;BME280;32676;52.630;4.896;2023-07-30T01:12:09;99816.91;;;18.02;81.69
46942;BME280;32676;52.630;4.896;2023-07-30T01:14:35;99817.88;;;18.01;81.74
46942;BME280;32676;52.630;4.896;2023-07-30T01:17:04;99824.88;;;18.02;81.51
46942;BME280;32676;52.630;4.896;2023-07-30T01:19:33;99828.50;;;18.01;81.58
46942;BME280;32676;52.630;4.896;2023-07-30T01:22:01;99807.47;;;17.98;81.66
46942;BME280;32676;52.630;4.896;2023-07-30T01:24:28;99812.78;;;17.98;81.95
46942;BME280;32676;52.630;4.896;2023-07-30T01:26:55;99807.72;;;17.95;81.64
46942;BME280;32676;52.630;4.896;2023-07-30T01:29:22;99802.41;;;17.95;81.71
46942;BME280;32676;52.630;4.896;2023-07-30T01:31:52;99795.41;;;17.94;81.65
46942;BME280;32676;52.630;4.896;2023-07-30T01:34:20;99796.38;;;17.93;81.54
46942;BME280;32676;52.630;4.896;2023-07-30T01:36:48;99792.88;;;17.93;81.47
46942;BME280;32676;52.630;4.896;2023-07-30T01:39:16;99795.66;;;17.91;81.28
46942;BME280;32676;52.630;4.896;2023-07-30T01:41:43;99786.97;;;17.89;81.14
46942;BME280;32676;52.630;4.896;2023-07-30T01:44:09;99786.97;;;17.89;80.99
46942;BME280;32676;52.630;4.896;2023-07-30T01:46:35;99778.25;;;17.87;80.61
46942;BME280;32676;52.630;4.896;2023-07-30T01:49:02;99759.03;;;17.83;80.28
46942;BME280;32676;52.630;4.896;2023-07-30T01:51:28;99747.78;;;17.80;80.01
46942;BME280;32676;52.630;4.896;2023-07-30T01:53:55;99745.13;;;17.80;79.72
46942;BME280;32676;52.630;4.896;2023-07-30T01:56:22;99754.06;;;17.79;80.10
46942;BME280;32676;52.630;4.896;2023-07-30T01:58:48;99738.38;;;17.76;79.89
46942;BME280;32676;52.630;4.896;2023-07-30T02:01:15;99736.69;;;17.75;79.90
46942;BME280;32676;52.630;4.896;2023-07-30T02:03:42;99714.00;;;17.71;79.55
46942;BME280;32676;52.630;4.896;2023-07-30T02:06:08;99719.31;;;17.71;79.09
46942;BME280;32676;52.630;4.896;2023-07-30T02:08:36;99691.31;;;17.67;79.28
46942;BME280;32676;52.630;4.896;2023-07-30T02:11:02;99691.53;;;17.63;78.81
46942;BME280;32676;52.630;4.896;2023-07-30T02:13:30;99685.38;;;17.63;78.27
46942;BME280;32676;52.630;4.896;2023-07-30T02:15:56;99684.53;;;17.62;77.94
46942;BME280;32676;52.630;4.896;2023-07-30T02:18:23;99669.69;;;17.60;77.98
46942;BME280;32676;52.630;4.896;2023-07-30T02:20:49;99660.16;;;17.57;78.36
46942;BME280;32676;52.630;4.896;2023-07-30T02:23:15;99658.34;;;17.58;78.58
46942;BME280;32676;52.630;4.896;2023-07-30T02:25:42;99676.81;;;17.59;78.58
46942;BME280;32676;52.630;4.896;2023-07-30T02:28:08;99667.16;;;17.58;78.78
46942;BME280;32676;52.630;4.896;2023-07-30T02:30:36;99665.47;;;17.57;78.91
46942;BME280;32676;52.630;4.896;2023-07-30T02:33:03;99662.06;;;17.55;78.61
46942;BME280;32676;52.630;4.896;2023-07-30T02:35:29;99662.06;;;17.55;78.80
46942;BME280;32676;52.630;4.896;2023-07-30T02:37:55;99660.41;;;17.54;78.54
46942;BME280;32676;52.630;4.896;2023-07-30T02:40:22;99663.06;;;17.54;78.45
46942;BME280;32676;52.630;4.896;2023-07-30T02:42:48;99653.38;;;17.53;78.42
46942;BME280;32676;52.630;4.896;2023-07-30T02:45:14;99653.38;;;17.53;78.55
46942;BME280;32676;52.630;4.896;2023-07-30T02:47:42;99657.03;;;17.52;78.32
46942;BME280;32676;52.630;4.896;2023-07-30T02:50:09;99660.41;;;17.54;78.08
46942;BME280;32676;52.630;4.896;2023-07-30T02:52:36;99674.41;;;17.56;77.59
46942;BME280;32676;52.630;4.896;2023-07-30T02:55:02;99679.72;;;17.56;76.34
46942;BME280;32676;52.630;4.896;2023-07-30T02:57:28;99673.56;;;17.56;74.32
46942;BME280;32676;52.630;4.896;2023-07-30T02:59:55;99656.16;;;17.52;72.26
46942;BME280;32676;52.630;4.896;2023-07-30T03:02:21;99636.13;;;17.48;71.05
46942;BME280;32676;52.630;4.896;2023-07-30T03:04:49;99644.09;;;17.48;70.01
46942;BME280;32676;52.630;4.896;2023-07-30T03:07:15;99625.91;;;17.43;69.71
46942;BME280;32676;52.630;4.896;2023-07-30T03:09:43;99616.22;;;17.42;69.44
46942;BME280;32676;52.630;4.896;2023-07-30T03:12:09;99614.41;;;17.42;69.49
46942;BME280;32676;52.630;4.896;2023-07-30T03:14:36;99605.72;;;17.40;69.45
46942;BME280;32676;52.630;4.896;2023-07-30T03:17:02;99597.03;;;17.38;69.52
46942;BME280;32676;52.630;4.896;2023-07-30T03:19:29;99607.44;;;17.41;69.76
46942;BME280;32676;52.630;4.896;2023-07-30T03:21:57;99611.91;;;17.41;70.42
46942;BME280;32676;52.630;4.896;2023-07-30T03:24:23;99613.56;;;17.42;70.44
46942;BME280;32676;52.630;4.896;2023-07-30T03:26:50;99604.88;;;17.40;70.79
46942;BME280;32676;52.630;4.896;2023-07-30T03:29:16;99616.22;;;17.42;70.91
46942;BME280;32676;52.630;4.896;2023-07-30T03:31:43;99576.44;;;17.19;70.73
46942;BME280;32676;52.630;4.896;2023-07-30T03:34:09;99622.25;;;17.44;70.33
46942;BME280;32676;52.630;4.896;2023-07-30T03:36:36;99637.25;;;17.45;70.07
46942;BME280;32676;52.630;4.896;2023-07-30T03:39:03;99645.91;;;17.47;69.99
46942;BME280;32676;52.630;4.896;2023-07-30T03:41:30;99650.25;;;17.48;69.90
46942;BME280;32676;52.630;4.896;2023-07-30T03:43:56;99651.94;;;17.49;70.04
46942;BME280;32676;52.630;4.896;2023-07-30T03:46:22;99647.59;;;17.48;70.38
46942;BME280;32676;52.630;4.896;2023-07-30T03:48:49;99627.56;;;17.44;70.66
46942;BME280;32676;52.630;4.896;2023-07-30T03:51:15;99620.59;;;17.43;71.20
46942;BME280;32676;52.630;4.896;2023-07-30T03:53:42;99630.34;;;17.42;70.91
46942;BME280;32676;52.630;4.896;2023-07-30T03:56:10;99614.56;;;17.41;70.38
46942;BME280;32676;52.630;4.896;2023-07-30T03:58:36;99601.53;;;17.38;69.33
46942;BME280;32676;52.630;4.896;2023-07-30T04:01:03;99611.31;;;17.37;68.65
46942;BME280;32676;52.630;4.896;2023-07-30T04:03:29;99594.78;;;17.34;67.96
46942;BME280;32676;52.630;4.896;2023-07-30T04:05:55;99581.63;;;17.32;67.86
46942;BME280;32676;52.630;4.896;2023-07-30T04:08:22;99582.44;;;17.33;68.08
46942;BME280;32676;52.630;4.896;2023-07-30T04:10:48;99583.41;;;17.32;68.21
46942;BME280;32676;52.630;4.896;2023-07-30T04:13:16;99593.06;;;17.33;68.72
46942;BME280;32676;52.630;4.896;2023-07-30T04:15:42;99594.78;;;17.34;68.75
46942;BME280;32676;52.630;4.896;2023-07-30T04:18:09;99600.91;;;17.34;69.25
46942;BME280;32676;52.630;4.896;2023-07-30T04:20:35;99591.25;;;17.33;69.22
46942;BME280;32676;52.630;4.896;2023-07-30T04:23:01;99593.06;;;17.33;69.21
46942;BME280;32676;52.630;4.896;2023-07-30T04:25:28;99599.22;;;17.33;69.01
46942;BME280;32676;52.630;4.896;2023-07-30T04:27:54;99577.38;;;17.30;68.62
46942;BME280;32676;52.630;4.896;2023-07-30T04:30:22;99567.03;;;17.26;68.45
46942;BME280;32676;52.630;4.896;2023-07-30T04:32:48;99563.38;;;17.27;68.21
46942;BME280;32676;52.630;4.896;2023-07-30T04:35:15;99561.72;;;17.26;68.07
46942;BME280;32676;52.630;4.896;2023-07-30T04:37:41;99568.69;;;17.27;68.40
46942;BME280;32676;52.630;4.896;2023-07-30T04:40:08;99575.72;;;17.29;68.59
46942;BME280;32676;52.630;4.896;2023-07-30T04:42:34;99568.69;;;17.27;68.71
46942;BME280;32676;52.630;4.896;2023-07-30T04:45:01;99582.69;;;17.30;69.24
46942;BME280;32676;52.630;4.896;2023-07-30T04:47:29;99584.38;;;17.31;69.14
46942;BME280;32676;52.630;4.896;2023-07-30T04:49:56;99601.16;;;17.31;69.31
46942;BME280;32676;52.630;4.896;2023-07-30T04:52:22;99598.38;;;17.33;69.28
46942;BME280;32676;52.630;4.896;2023-07-30T04:54:48;99607.06;;;17.35;69.38
46942;BME280;32676;52.630;4.896;2023-07-30T04:57:15;99617.44;;;17.38;69.60
46942;BME280;32676;52.630;4.896;2023-07-30T04:59:41;99622.75;;;17.38;69.71
46942;BME280;32676;52.630;4.896;2023-07-30T05:02:07;99628.06;;;17.38;69.82
46942;BME280;32676;52.630;4.896;2023-07-30T05:04:35;99642.78;;;17.42;69.87
46942;BME280;32676;52.630;4.896;2023-07-30T05:07:01;99658.47;;;17.45;70.23
46942;BME280;32676;52.630;4.896;2023-07-30T05:09:28;99661.16;;;17.45;70.03
46942;BME280;32676;52.630;4.896;2023-07-30T05:11:54;99656.78;;;17.44;70.19
46942;BME280;32676;52.630;4.896;2023-07-30T05:14:20;99676.81;;;17.48;69.57
46942;BME280;32676;52.630;4.896;2023-07-30T05:16:46;99663.69;;;17.46;68.41
46942;BME280;32676;52.630;4.896;2023-07-30T05:19:13;99676.81;;;17.48;67.61
46942;BME280;32676;52.630;4.896;2023-07-30T05:21:41;99674.91;;;17.50;67.26
46942;BME280;32676;52.630;4.896;2023-07-30T05:24:07;99693.34;;;17.52;67.36
46942;BME280;32676;52.630;4.896;2023-07-30T05:26:33;99699.53;;;17.52;66.87
46942;BME280;32676;52.630;4.896;2023-07-30T05:29:00;99700.47;;;17.51;65.92
46942;BME280;32676;52.630;4.896;2023-07-30T05:31:26;99701.19;;;17.53;65.20
46942;BME280;32676;52.630;4.896;2023-07-30T05:33:52;99703.75;;;17.55;64.95
46942;BME280;32676;52.630;4.896;2023-07-30T05:36:19;99711.59;;;17.56;64.83
46942;BME280;32676;52.630;4.896;2023-07-30T05:38:47;99724.75;;;17.58;64.86
46942;BME280;32676;52.630;4.896;2023-07-30T05:41:13;99728.13;;;17.60;64.93
46942;BME280;32676;52.630;4.896;2023-07-30T05:43:39;99748.28;;;17.62;65.52
46942;BME280;32676;52.630;4.896;2023-07-30T05:46:05;99745.63;;;17.62;65.90
46942;BME280;32676;52.630;4.896;2023-07-30T05:48:32;99748.28;;;17.62;66.44
46942;BME280;32676;52.630;4.896;2023-07-30T05:50:58;99758.69;;;17.65;66.51
46942;BME280;32676;52.630;4.896;2023-07-30T05:53:24;99784.03;;;17.70;66.99
46942;BME280;32676;52.630;4.896;2023-07-30T05:55:52;99791.75;;;17.73;67.46
46942;BME280;32676;52.630;4.896;2023-07-30T05:58:18;99794.41;;;17.73;67.91
46942;BME280;32676;52.630;4.896;2023-07-30T06:00:45;99793.59;;;17.72;68.27
46942;BME280;32676;52.630;4.896;2023-07-30T06:03:11;99797.09;;;17.73;68.31
46942;BME280;32676;52.630;4.896;2023-07-30T06:05:41;99786.69;;;17.70;68.47
46942;BME280;32676;52.630;4.896;2023-07-30T06:08:08;99746.63;;;17.61;68.73
46942;BME280;32676;52.630;4.896;2023-07-30T06:10:34;99718.84;;;17.54;69.36
46942;BME280;32676;52.630;4.896;2023-07-30T06:13:03;99683.22;;;17.45;70.73
46942;BME280;32676;52.630;4.896;2023-07-30T06:15:29;99624.94;;;17.33;72.31
46942;BME280;32676;52.630;4.896;2023-07-30T06:17:56;99592.81;;;17.24;73.88
46942;BME280;32676;52.630;4.896;2023-07-30T06:20:22;99576.44;;;17.19;74.80
46942;BME280;32676;52.630;4.896;2023-07-30T06:22:48;99562.47;;;17.17;75.77
46942;BME280;32676;52.630;4.896;2023-07-30T06:25:15;99557.38;;;17.14;76.49
46942;BME280;32676;52.630;4.896;2023-07-30T06:27:41;99555.69;;;17.13;77.02
46942;BME280;32676;52.630;4.896;2023-07-30T06:30:09;99555.69;;;17.13;77.38
46942;BME280;32676;52.630;4.896;2023-07-30T06:32:36;99568.84;;;17.15;77.52
46942;BME280;32676;52.630;4.896;2023-07-30T06:35:02;99585.38;;;17.18;77.58
46942;BME280;32676;52.630;4.896;2023-07-30T06:37:29;99594.91;;;17.21;77.65
46942;BME280;32676;52.630;4.896;2023-07-30T06:39:55;99612.41;;;17.23;77.40
46942;BME280;32676;52.630;4.896;2023-07-30T06:42:22;99687.09;;;17.41;76.83
46942;BME280;32676;52.630;4.896;2023-07-30T06:44:48;99810.72;;;17.68;76.97
46942;BME280;32676;52.630;4.896;2023-07-30T06:47:16;99949.34;;;17.97;76.97
46942;BME280;32676;52.630;4.896;2023-07-30T06:49:43;100002.28;;;18.12;76.16
46942;BME280;32676;52.630;4.896;2023-07-30T06:52:09;100055.50;;;18.23;74.33
46942;BME280;32676;52.630;4.896;2023-07-30T06:54:35;100072.91;;;18.27;73.75
46942;BME280;32676;52.630;4.896;2023-07-30T06:57:02;100092.03;;;18.32;73.21
46942;BME280;32676;52.630;4.896;2023-07-30T06:59:28;100109.44;;;18.36;73.32
46942;BME280;32676;52.630;4.896;2023-07-30T07:01:55;100107.72;;;18.35;73.29
46942;BME280;32676;52.630;4.896;2023-07-30T07:04:23;100114.75;;;18.36;73.16
46942;BME280;32676;52.630;4.896;2023-07-30T07:06:49;100121.78;;;18.37;72.89
46942;BME280;32676;52.630;4.896;2023-07-30T07:09:15;100107.00;;;18.33;72.58
46942;BME280;32676;52.630;4.896;2023-07-30T07:11:42;100111.38;;;18.34;72.34
46942;BME280;32676;52.630;4.896;2023-07-30T07:14:09;100092.25;;;18.29;72.20
46942;BME280;32676;52.630;4.896;2023-07-30T07:16:37;100081.84;;;18.26;72.37
46942;BME280;32676;52.630;4.896;2023-07-30T07:19:03;100060.94;;;18.21;72.45
46942;BME280;32676;52.630;4.896;2023-07-30T07:21:31;100047.88;;;18.18;72.38
46942;BME280;32676;52.630;4.896;2023-07-30T07:23:57;99996.50;;;18.07;71.71
46942;BME280;32676;52.630;4.896;2023-07-30T07:26:24;99945.22;;;17.93;71.30
46942;BME280;32676;52.630;4.896;2023-07-30T07:28:50;99882.50;;;17.79;73.18
46942;BME280;32676;52.630;4.896;2023-07-30T07:31:16;99824.16;;;17.67;75.03
46942;BME280;32676;52.630;4.896;2023-07-30T07:33:44;99777.28;;;17.54;76.23
46942;BME280;32676;52.630;4.896;2023-07-30T07:36:10;99751.19;;;17.48;76.96
46942;BME280;32676;52.630;4.896;2023-07-30T07:38:41;99744.19;;;17.47;77.84
46942;BME280;32676;52.630;4.896;2023-07-30T07:41:13;99755.66;;;17.48;78.46
46942;BME280;32676;52.630;4.896;2023-07-30T07:43:39;99783.53;;;17.53;78.74
46942;BME280;32676;52.630;4.896;2023-07-30T07:46:06;99798.31;;;17.57;79.08
46942;BME280;32676;52.630;4.896;2023-07-30T07:48:38;99833.91;;;17.66;79.26
46942;BME280;32676;52.630;4.896;2023-07-30T07:51:04;99864.47;;;17.72;79.20
46942;BME280;32676;52.630;4.896;2023-07-30T07:53:31;99890.56;;;17.78;79.07
46942;BME280;32676;52.630;4.896;2023-07-30T07:55:58;99905.44;;;17.80;77.92
46942;BME280;32676;52.630;4.896;2023-07-30T07:58:25;99932.53;;;17.86;77.26
46942;BME280;32676;52.630;4.896;2023-07-30T08:00:53;99964.69;;;17.94;76.85
46942;BME280;32676;52.630;4.896;2023-07-30T08:03:20;100009.19;;;18.03;75.68
46942;BME280;32676;52.630;4.896;2023-07-30T08:05:46;100040.50;;;18.11;75.55
46942;BME280;32676;52.630;4.896;2023-07-30T08:08:13;100064.91;;;18.16;74.89
46942;BME280;32676;52.630;4.896;2023-07-30T08:10:40;100096.34;;;18.22;74.23
46942;BME280;32676;52.630;4.896;2023-07-30T08:13:10;100119.84;;;18.28;73.89
46942;BME280;32676;52.630;4.896;2023-07-30T08:15:36;100135.53;;;18.31;73.85
46942;BME280;32676;52.630;4.896;2023-07-30T08:18:02;100133.00;;;18.30;74.07
46942;BME280;32676;52.630;4.896;2023-07-30T08:20:29;100207.16;;;18.46;74.10
46942;BME280;32676;52.630;4.896;2023-07-30T08:22:55;100288.28;;;18.64;73.77
46942;BME280;32676;52.630;4.896;2023-07-30T08:25:21;100333.56;;;18.75;72.76
46942;BME280;32676;52.630;4.896;2023-07-30T08:27:49;100384.25;;;18.87;72.00
46942;BME280;32676;52.630;4.896;2023-07-30T08:30:17;100407.00;;;18.91;71.67
46942;BME280;32676;52.630;4.896;2023-07-30T08:32:43;100508.31;;;19.13;71.22
46942;BME280;32676;52.630;4.896;2023-07-30T08:35:10;100593.91;;;19.33;70.87
46942;BME280;32676;52.630;4.896;2023-07-30T08:37:36;100651.66;;;19.45;70.90
46942;BME280;32676;52.630;4.896;2023-07-30T08:40:03;100663.78;;;19.49;70.31
46942;BME280;32676;52.630;4.896;2023-07-30T08:42:30;100663.78;;;19.49;69.52
46942;BME280;32676;52.630;4.896;2023-07-30T08:44:57;100659.53;;;19.47;68.76
46942;BME280;32676;52.630;4.896;2023-07-30T08:47:25;100637.59;;;19.43;68.38
46942;BME280;32676;52.630;4.896;2023-07-30T08:49:51;100698.75;;;19.58;68.24
46942;BME280;32676;52.630;4.896;2023-07-30T08:52:18;100732.72;;;19.67;67.85
46942;BME280;32676;52.630;4.896;2023-07-30T08:54:46;100735.41;;;19.67;67.01
46942;BME280;32676;52.630;4.896;2023-07-30T08:57:15;100705.75;;;19.59;65.96
46942;BME280;32676;52.630;4.896;2023-07-30T08:59:42;100699.59;;;19.58;66.06
46942;BME280;32676;52.630;4.896;2023-07-30T09:02:17;100726.66;;;19.65;65.35
46942;BME280;32676;52.630;4.896;2023-07-30T09:04:45;100714.50;;;19.61;65.95
46942;BME280;32676;52.630;4.896;2023-07-30T09:07:13;100780.84;;;19.78;65.90
46942;BME280;32676;52.630;4.896;2023-07-30T09:09:39;100786.16;;;19.78;66.13
46942;BME280;32676;52.630;4.896;2023-07-30T09:12:12;100826.44;;;19.86;65.47
46942;BME280;32676;52.630;4.896;2023-07-30T09:14:38;100920.00;;;20.09;65.64
46942;BME280;32676;52.630;4.896;2023-07-30T09:17:05;100975.16;;;20.21;66.20
46942;BME280;32676;52.630;4.896;2023-07-30T09:19:34;101024.34;;;20.30;65.70
46942;BME280;32676;52.630;4.896;2023-07-30T09:22:05;101109.16;;;20.52;64.69
46942;BME280;32676;52.630;4.896;2023-07-30T09:24:31;101203.03;;;20.71;64.24
46942;BME280;32676;52.630;4.896;2023-07-30T09:26:57;101172.19;;;20.67;64.23
46942;BME280;32676;52.630;4.896;2023-07-30T09:29:27;101149.44;;;20.62;62.56
46942;BME280;32676;52.630;4.896;2023-07-30T09:31:54;101208.19;;;20.75;62.58
46942;BME280;32676;52.630;4.896;2023-07-30T09:34:22;101282.78;;;20.90;62.88
46942;BME280;32676;52.630;4.896;2023-07-30T09:36:50;101358.03;;;21.10;63.51
46942;BME280;32676;52.630;4.896;2023-07-30T09:39:18;101438.03;;;21.26;64.39
46942;BME280;32676;52.630;4.896;2023-07-30T09:41:45;101502.88;;;21.42;63.36
46942;BME280;32676;52.630;4.896;2023-07-30T09:44:11;101552.16;;;21.53;61.66
46942;BME280;32676;52.630;4.896;2023-07-30T09:46:41;101567.13;;;21.55;61.34
46942;BME280;32676;52.630;4.896;2023-07-30T09:49:08;101598.59;;;21.64;60.86
46942;BME280;32676;52.630;4.896;2023-07-30T09:51:34;101530.00;;;21.51;61.29
46942;BME280;32676;52.630;4.896;2023-07-30T09:54:02;101471.13;;;21.38;60.89
46942;BME280;32676;52.630;4.896;2023-07-30T09:56:30;101393.78;;;21.22;60.11
46942;BME280;32676;52.630;4.896;2023-07-30T09:58:59;101401.69;;;21.23;60.88
46942;BME280;32676;52.630;4.896;2023-07-30T10:01:25;101433.97;;;21.33;60.94
46942;BME280;32676;52.630;4.896;2023-07-30T10:03:53;101469.09;;;21.41;60.61
46942;BME280;32676;52.630;4.896;2023-07-30T10:06:21;101455.16;;;21.36;60.22
46942;BME280;32676;52.630;4.896;2023-07-30T10:08:49;101441.06;;;21.34;59.88
46942;BME280;32676;52.630;4.896;2023-07-30T10:11:17;101433.13;;;21.33;60.91
46942;BME280;32676;52.630;4.896;2023-07-30T10:13:47;101377.72;;;21.22;61.28
46942;BME280;32676;52.630;4.896;2023-07-30T10:16:13;101326.84;;;21.11;61.74
46942;BME280;32676;52.630;4.896;2023-07-30T10:18:41;101303.09;;;21.06;62.45
46942;BME280;32676;52.630;4.896;2023-07-30T10:21:08;101341.69;;;21.15;62.59
46942;BME280;32676;52.630;4.896;2023-07-30T10:23:35;101389.91;;;21.26;62.60
46942;BME280;32676;52.630;4.896;2023-07-30T10:26:08;101400.41;;;21.29;61.95
46942;BME280;32676;52.630;4.896;2023-07-30T10:28:35;101440.81;;;21.37;61.40
46942;BME280;32676;52.630;4.896;2023-07-30T10:31:06;101429.38;;;21.35;60.89
46942;BME280;32676;52.630;4.896;2023-07-30T10:36:26;101368.75;;;21.23;60.02
46942;BME280;32676;52.630;4.896;2023-07-30T10:38:53;101351.19;;;21.19;60.30
46942;BME280;32676;52.630;4.896;2023-07-30T10:41:20;101303.72;;;21.09;61.16
46942;BME280;32676;52.630;4.896;2023-07-30T10:43:47;101316.88;;;21.13;61.51
46942;BME280;32676;52.630;4.896;2023-07-30T10:46:22;101370.25;;;21.27;60.86
46942;BME280;32676;52.630;4.896;2023-07-30T10:48:50;101396.56;;;21.33;60.61
46942;BME280;32676;52.630;4.896;2023-07-30T10:51:17;101429.94;;;21.40;60.40
46942;BME280;32676;52.630;4.896;2023-07-30T10:53:43;101422.88;;;21.39;60.00
46942;BME280;32676;52.630;4.896;2023-07-30T10:56:10;101398.28;;;21.34;59.56
46942;BME280;32676;52.630;4.896;2023-07-30T10:58:37;101327.16;;;21.19;59.92
46942;BME280;32676;52.630;4.896;2023-07-30T11:01:04;101307.91;;;21.14;60.15
46942;BME280;32676;52.630;4.896;2023-07-30T11:03:32;101316.56;;;21.17;60.52
46942;BME280;32676;52.630;4.896;2023-07-30T11:05:59;101331.53;;;21.20;60.49
46942;BME280;32676;52.630;4.896;2023-07-30T11:08:32;101340.31;;;21.22;60.38
46942;BME280;32676;52.630;4.896;2023-07-30T11:10:59;101372.69;;;21.30;60.18
46942;BME280;32676;52.630;4.896;2023-07-30T11:13:25;101420.97;;;21.41;60.52
46942;BME280;32676;52.630;4.896;2023-07-30T11:15:52;101472.88;;;21.52;61.08
46942;BME280;32676;52.630;4.896;2023-07-30T11:18:18;101495.66;;;21.57;60.29
46942;BME280;32676;52.630;4.896;2023-07-30T11:20:46;101468.25;;;21.54;59.75
46942;BME280;32676;52.630;4.896;2023-07-30T11:23:19;101423.41;;;21.44;59.90
46942;BME280;32676;52.630;4.896;2023-07-30T11:25:46;101480.69;;;21.55;61.05
46942;BME280;32676;52.630;4.896;2023-07-30T11:28:14;101520.06;;;21.65;60.48
46942;BME280;32676;52.630;4.896;2023-07-30T11:30:40;101561.41;;;21.74;60.15
46942;BME280;32676;52.630;4.896;2023-07-30T11:33:06;101564.81;;;21.76;58.51
46942;BME280;32676;52.630;4.896;2023-07-30T11:35:33;101539.34;;;21.71;58.05
46942;BME280;32676;52.630;4.896;2023-07-30T11:38:00;101506.81;;;21.64;58.83
46942;BME280;32676;52.630;4.896;2023-07-30T11:40:27;101508.53;;;21.65;59.42
46942;BME280;32676;52.630;4.896;2023-07-30T11:42:53;101510.22;;;21.66;59.13
46942;BME280;32676;52.630;4.896;2023-07-30T11:45:20;101497.81;;;21.65;58.97
46942;BME280;32676;52.630;4.896;2023-07-30T11:47:47;101429.31;;;21.50;58.94
46942;BME280;32676;52.630;4.896;2023-07-30T11:50:13;101369.63;;;21.36;59.23
46942;BME280;32676;52.630;4.896;2023-07-30T11:52:50;101292.41;;;21.19;62.01
46942;BME280;32676;52.630;4.896;2023-07-30T11:55:18;101216.09;;;21.02;66.13
46942;BME280;32676;52.630;4.896;2023-07-30T11:57:45;101181.91;;;20.94;68.95
46942;BME280;32676;52.630;4.896;2023-07-30T12:00:12;101134.69;;;20.82;69.54
46942;BME280;32676;52.630;4.896;2023-07-30T12:02:38;101099.63;;;20.74;69.66
46942;BME280;32676;52.630;4.896;2023-07-30T12:05:06;101156.59;;;20.87;69.30
46942;BME280;32676;52.630;4.896;2023-07-30T12:07:32;101226.69;;;21.03;68.68
46942;BME280;32676;52.630;4.896;2023-07-30T12:10:06;101238.94;;;21.06;68.84
46942;BME280;32676;52.630;4.896;2023-07-30T12:12:34;101266.22;;;21.11;67.61
46942;BME280;32676;52.630;4.896;2023-07-30T12:15:00;101223.25;;;20.88;66.82
46942;BME280;32676;52.630;4.896;2023-07-30T12:17:27;101287.28;;;21.16;66.74
46942;BME280;32676;52.630;4.896;2023-07-30T12:19:53;101266.13;;;21.13;65.70
46942;BME280;32676;52.630;4.896;2023-07-30T12:22:19;101252.22;;;21.07;64.06
46942;BME280;32676;52.630;4.896;2023-07-30T12:24:46;101252.97;;;21.09;64.38
46942;BME280;32676;52.630;4.896;2023-07-30T12:27:12;101241.53;;;21.07;64.51
46942;BME280;32676;52.630;4.896;2023-07-30T12:29:40;101249.44;;;21.09;63.91
46942;BME280;32676;52.630;4.896;2023-07-30T12:32:07;101299.47;;;21.20;64.66
46942;BME280;32676;52.630;4.896;2023-07-30T12:34:34;101298.63;;;21.19;64.88
46942;BME280;32676;52.630;4.896;2023-07-30T12:37:00;101288.97;;;21.17;63.86
46942;BME280;32676;52.630;4.896;2023-07-30T12:39:26;101376.66;;;21.37;63.78
46942;BME280;32676;52.630;4.896;2023-07-30T12:41:53;101424.81;;;21.50;63.59
46942;BME280;32676;52.630;4.896;2023-07-30T12:44:19;101438.09;;;21.52;62.97
46942;BME280;32676;52.630;4.896;2023-07-30T12:46:47;101448.59;;;21.55;61.88
46942;BME280;32676;52.630;4.896;2023-07-30T12:49:13;101426.66;;;21.50;61.59
46942;BME280;32676;52.630;4.896;2023-07-30T12:51:39;101437.91;;;21.55;61.58
46942;BME280;32676;52.630;4.896;2023-07-30T12:54:06;101405.47;;;21.46;60.99
46942;BME280;32676;52.630;4.896;2023-07-30T12:56:32;101407.19;;;21.47;61.87